Time;durP1;ratioP1;P1;durP2;ratioP2;P2;SDS_P1;SDS_P2;PMS_P1;PMS_P2;Temp;Humidity;BMP_temperature;BMP_pressure;BME280_temperature;BME280_humidity;BME280_pressure;Samples;Min_cycle;Max_cycle;Signal;HPM_P1;HPM_P2
2022/10/14 00:01:14;;;;;;;22.88;17.40;;;13.50;99.90;;;;;;5021088;28;20207;-73
2022/10/14 00:03:41;;;;;;;25.27;17.85;;;13.60;99.90;;;;;;5014888;28;20203;-73
2022/10/14 00:06:12;;;;;;;24.63;19.33;;;13.50;99.90;;;;;;5029863;28;20703;-73
2022/10/14 00:08:40;;;;;;;23.77;16.52;;;13.50;99.90;;;;;;5027751;28;20227;-73
2022/10/14 00:11:17;;;;;;;23.60;16.58;;;13.60;99.90;;;;;;5027143;28;20206;-73
2022/10/14 00:13:45;;;;;;;20.90;16.05;;;13.70;99.90;;;;;;5033450;28;20201;-73
2022/10/14 00:16:18;;;;;;;26.67;16.65;;;13.70;99.90;;;;;;5030388;28;20218;-73
2022/10/14 00:18:46;;;;;;;22.58;15.75;;;13.70;99.90;;;;;;5031450;28;20223;-73
2022/10/14 00:21:16;;;;;;;24.13;16.35;;;13.70;99.90;;;;;;5032471;28;20195;-73
2022/10/14 00:23:43;;;;;;;25.40;17.60;;;13.60;99.90;;;;;;5016063;28;20576;-73
2022/10/14 00:26:19;;;;;;;24.55;17.20;;;13.60;99.90;;;;;;5032695;28;20645;-73
2022/10/14 00:28:47;;;;;;;24.17;17.27;;;13.60;99.90;;;;;;5030406;28;20241;-73
2022/10/14 00:31:15;;;;;;;27.98;18.42;;;13.70;99.90;;;;;;5027956;28;20211;-73
2022/10/14 00:33:45;;;;;;;26.10;17.45;;;13.70;99.90;;;;;;5028149;28;20199;-73
2022/10/14 00:36:16;;;;;;;23.63;18.73;;;13.70;99.90;;;;;;5015281;28;20223;-73
2022/10/14 00:38:44;;;;;;;24.75;17.50;;;13.60;99.90;;;;;;5025484;28;20258;-73
2022/10/14 00:41:13;;;;;;;22.95;17.83;;;13.60;99.90;;;;;;5028215;28;20215;-73
2022/10/14 00:43:59;;;;;;;24.25;18.27;;;13.70;99.90;;;;;;5021675;28;20198;-73
2022/10/14 00:46:29;;;;;;;25.52;18.00;;;13.60;99.90;;;;;;5036164;28;20210;-73
2022/10/14 00:49:07;;;;;;;25.70;18.60;;;13.70;99.90;;;;;;5023619;28;20588;-73
2022/10/14 00:51:38;;;;;;;23.48;17.02;;;13.70;99.90;;;;;;5022676;28;20657;-73
2022/10/14 00:54:06;;;;;;;27.10;17.38;;;13.70;99.90;;;;;;5026443;28;20568;-73
2022/10/14 00:56:35;;;;;;;26.60;18.60;;;13.70;99.90;;;;;;5013418;28;20230;-73
2022/10/14 00:59:05;;;;;;;26.80;18.88;;;13.60;99.90;;;;;;5011523;28;20246;-73
2022/10/14 01:01:33;;;;;;;27.15;19.40;;;13.60;99.90;;;;;;5025816;28;20211;-73
2022/10/14 01:04:00;;;;;;;24.33;18.55;;;13.60;99.90;;;;;;5025497;28;20199;-73
2022/10/14 01:06:43;;;;;;;26.27;18.17;;;13.60;99.90;;;;;;5028986;28;20190;-73
2022/10/14 01:09:22;;;;;;;25.27;17.88;;;13.50;99.90;;;;;;5009359;28;20235;-73
2022/10/14 01:12:00;;;;;;;23.92;16.85;;;13.50;99.90;;;;;;5030827;28;20209;-73
2022/10/14 01:14:33;;;;;;;21.90;17.23;;;13.60;99.90;;;;;;5011846;28;20202;-73
2022/10/14 01:17:10;;;;;;;24.70;17.75;;;13.60;99.90;;;;;;5015503;28;20245;-73
2022/10/14 01:19:55;;;;;;;26.48;17.05;;;13.60;99.90;;;;;;5027068;28;20225;-73
2022/10/14 01:22:30;;;;;;;27.90;18.15;;;13.60;99.90;;;;;;5030541;28;20194;-73
2022/10/14 01:25:08;;;;;;;21.65;15.70;;;13.60;99.90;;;;;;5027375;28;20230;-73
2022/10/14 01:28:00;;;;;;;25.63;17.83;;;13.70;99.90;;;;;;5010773;28;20225;-73
2022/10/14 01:30:31;;;;;;;23.63;16.98;;;13.70;99.90;;;;;;5010337;28;20219;-73
2022/10/14 01:33:07;;;;;;;25.10;16.98;;;13.70;99.90;;;;;;5028632;28;20564;-73
2022/10/14 01:35:45;;;;;;;25.83;17.83;;;13.70;99.90;;;;;;5026106;28;20561;-75
2022/10/14 01:38:18;;;;;;;24.05;16.10;;;13.80;99.90;;;;;;5012318;28;20199;-75
2022/10/14 01:40:52;;;;;;;25.65;18.77;;;13.80;99.90;;;;;;5014922;28;20205;-75
2022/10/14 01:43:22;;;;;;;29.88;17.30;;;13.80;99.90;;;;;;5027013;28;20186;-75
2022/10/14 01:45:53;;;;;;;27.90;18.13;;;13.70;99.90;;;;;;5034876;28;20195;-75
2022/10/14 01:48:27;;;;;;;30.27;19.88;;;13.70;99.90;;;;;;5025477;28;20207;-75
2022/10/14 01:50:59;;;;;;;29.05;18.75;;;13.70;99.90;;;;;;5026803;28;20195;-75
2022/10/14 01:53:33;;;;;;;25.88;18.65;;;13.60;99.90;;;;;;5012745;28;20203;-75
2022/10/14 01:56:03;;;;;;;30.75;19.88;;;13.70;99.90;;;;;;5026246;28;20202;-75
2022/10/14 01:58:33;;;;;;;29.23;19.40;;;13.60;99.90;;;;;;5017174;28;20684;-75
2022/10/14 02:01:08;;;;;;;26.23;18.50;;;13.60;99.90;;;;;;5012336;28;20221;-75
2022/10/14 02:03:40;;;;;;;28.17;18.90;;;13.70;99.90;;;;;;5027443;28;20194;-75
2022/10/14 02:06:12;;;;;;;25.75;17.55;;;13.80;99.90;;;;;;5019274;28;20200;-75
2022/10/14 02:08:54;;;;;;;23.75;17.40;;;13.80;99.90;;;;;;5027809;28;20558;-75
2022/10/14 02:12:08;;;;;;;26.98;18.55;;;13.80;99.90;;;;;;5028500;28;20657;-75
2022/10/14 02:14:47;;;;;;;23.13;16.45;;;13.80;99.90;;;;;;5027655;28;20195;-75
2022/10/14 02:17:21;;;;;;;23.70;16.75;;;13.80;99.90;;;;;;5028663;28;20297;-75
2022/10/14 02:19:55;;;;;;;22.48;16.33;;;13.80;99.90;;;;;;5011319;28;20214;-75
2022/10/14 02:22:28;;;;;;;21.63;16.73;;;13.90;99.90;;;;;;5026755;28;20629;-75
2022/10/14 02:24:59;;;;;;;21.27;17.20;;;13.90;99.90;;;;;;5040272;28;20183;-75
2022/10/14 02:27:31;;;;;;;25.50;17.30;;;13.90;99.90;;;;;;5022560;28;20201;-75
2022/10/14 02:29:59;;;;;;;20.85;16.75;;;13.90;99.90;;;;;;5013965;28;20221;-75
2022/10/14 02:32:29;;;;;;;22.85;16.42;;;13.90;99.90;;;;;;5012231;28;20203;-75
2022/10/14 02:34:59;;;;;;;23.02;16.55;;;13.90;99.90;;;;;;5030737;28;20194;-75
2022/10/14 02:37:33;;;;;;;18.38;15.73;;;13.80;99.90;;;;;;5017411;28;20588;-75
2022/10/14 02:40:07;;;;;;;19.88;16.27;;;13.80;99.90;;;;;;5016065;28;20223;-75
2022/10/14 02:42:35;;;;;;;18.48;15.52;;;13.90;99.90;;;;;;5033464;28;20199;-75
2022/10/14 02:45:25;;;;;;;17.83;15.63;;;13.90;99.90;;;;;;5013308;28;20203;-75
2022/10/14 02:47:53;;;;;;;19.48;15.63;;;13.90;99.90;;;;;;5030960;28;20200;-75
2022/10/14 02:50:21;;;;;;;19.42;15.10;;;13.90;99.90;;;;;;5007686;28;20237;-75
2022/10/14 02:52:51;;;;;;;18.75;15.38;;;13.80;99.90;;;;;;5044141;22;20199;-83
2022/10/14 02:55:19;;;;;;;20.48;15.05;;;13.80;99.90;;;;;;5070745;28;20217;-77
2022/10/14 02:57:46;;;;;;;20.00;15.02;;;13.80;99.90;;;;;;5073175;28;20221;-78
2022/10/14 03:00:15;;;;;;;17.58;14.15;;;13.80;99.90;;;;;;5072315;28;20202;-77
2022/10/14 03:02:43;;;;;;;19.10;14.38;;;13.80;99.90;;;;;;5075954;28;20550;-77
2022/10/14 03:05:12;;;;;;;16.63;12.75;;;13.70;99.90;;;;;;5071391;28;20699;-77
2022/10/14 03:07:40;;;;;;;15.85;13.77;;;13.70;99.90;;;;;;5073884;28;20205;-78
2022/10/14 03:10:12;;;;;;;16.60;14.15;;;13.70;99.90;;;;;;5072783;28;20210;-77
2022/10/14 03:12:40;;;;;;;17.73;12.80;;;13.70;99.90;;;;;;5073236;28;20213;-77
2022/10/14 03:15:15;;;;;;;15.57;12.43;;;13.70;99.90;;;;;;5073221;28;20210;-78
2022/10/14 03:17:43;;;;;;;17.45;13.82;;;13.70;99.90;;;;;;5073626;28;20213;-78
2022/10/14 03:20:12;;;;;;;14.80;12.80;;;13.70;99.90;;;;;;5068271;28;20194;-77
2022/10/14 03:22:47;;;;;;;15.38;13.30;;;13.60;99.90;;;;;;5068274;28;20189;-78
2022/10/14 03:25:16;;;;;;;14.75;12.98;;;13.70;99.90;;;;;;5072888;28;20197;-78
2022/10/14 03:27:57;;;;;;;16.88;13.00;;;13.70;99.90;;;;;;5071255;28;21918;-84
2022/10/14 03:30:37;;;;;;;17.30;13.93;;;13.70;99.90;;;;;;5068452;28;20189;-78
2022/10/14 03:33:46;;;;;;;17.10;14.00;;;13.70;99.90;;;;;;5065605;28;20217;-78
2022/10/14 03:36:18;;;;;;;16.33;13.82;;;13.70;99.90;;;;;;5065025;28;20204;-78
2022/10/14 03:38:54;;;;;;;16.35;14.20;;;13.70;99.90;;;;;;5072447;28;20220;-78
2022/10/14 03:41:32;;;;;;;17.48;14.23;;;13.70;99.90;;;;;;5069706;28;20194;-78
2022/10/14 03:44:00;;;;;;;16.65;13.77;;;13.70;99.90;;;;;;5077787;28;20221;-78
2022/10/14 03:46:28;;;;;;;17.98;14.07;;;13.70;99.90;;;;;;5074060;28;20202;-77
2022/10/14 03:48:57;;;;;;;17.95;14.32;;;13.60;99.90;;;;;;5073047;28;20552;-77
2022/10/14 03:51:26;;;;;;;20.23;14.32;;;13.70;99.90;;;;;;5072366;28;20201;-79
2022/10/14 03:54:02;;;;;;;19.88;14.27;;;13.70;99.90;;;;;;5072079;28;20590;-77
2022/10/14 03:56:30;;;;;;;18.25;14.00;;;13.60;99.90;;;;;;5072475;28;20201;-78
2022/10/14 03:58:58;;;;;;;18.30;14.30;;;13.60;99.90;;;;;;5072737;28;20228;-78
2022/10/14 04:01:26;;;;;;;18.42;13.70;;;13.60;99.90;;;;;;5066385;28;20198;-78
2022/10/14 04:04:13;;;;;;;17.25;14.13;;;13.60;99.90;;;;;;5071401;28;20225;-77
2022/10/14 04:06:42;;;;;;;17.45;13.18;;;13.60;99.90;;;;;;5070799;28;20201;-77
2022/10/14 04:09:10;;;;;;;17.95;13.18;;;13.60;99.90;;;;;;5076198;28;20201;-78
2022/10/14 04:11:41;;;;;;;16.52;13.13;;;13.60;99.90;;;;;;5070700;28;20551;-77
2022/10/14 04:14:26;;;;;;;15.80;12.63;;;13.60;99.90;;;;;;5071184;28;20221;-77
2022/10/14 04:16:53;;;;;;;15.18;12.43;;;13.60;99.90;;;;;;5071980;28;20197;-79
2022/10/14 04:19:21;;;;;;;14.90;12.75;;;13.60;99.90;;;;;;5071684;28;20717;-77
2022/10/14 04:21:51;;;;;;;16.20;13.45;;;13.60;99.90;;;;;;5069799;28;20200;-78
2022/10/14 04:24:21;;;;;;;15.43;11.98;;;13.70;99.90;;;;;;5071056;28;20222;-78
2022/10/14 04:26:56;;;;;;;15.75;13.07;;;13.70;99.90;;;;;;5071721;28;20197;-78
2022/10/14 04:29:33;;;;;;;18.08;13.40;;;13.70;99.90;;;;;;5068344;28;20591;-78
2022/10/14 04:32:10;;;;;;;12.82;11.30;;;13.60;99.90;;;;;;5071274;28;20190;-77
2022/10/14 04:34:38;;;;;;;15.02;12.23;;;13.70;99.90;;;;;;5070933;28;20218;-81
2022/10/14 04:37:08;;;;;;;15.60;12.82;;;13.70;99.90;;;;;;5070779;28;20682;-78
2022/10/14 04:40:06;;;;;;;14.65;12.38;;;13.70;99.90;;;;;;5051220;28;20198;-78
2022/10/14 04:42:39;;;;;;;14.65;12.32;;;13.80;99.90;;;;;;5070562;28;20197;-78
2022/10/14 04:45:12;;;;;;;15.02;12.27;;;13.70;99.90;;;;;;5070867;28;20198;-77
2022/10/14 04:47:49;;;;;;;12.05;10.15;;;13.70;99.90;;;;;;5070372;28;20209;-78
2022/10/14 04:50:20;;;;;;;15.35;11.60;;;13.80;99.90;;;;;;5070102;28;20204;-77
2022/10/14 04:53:08;;;;;;;14.13;11.73;;;13.80;99.90;;;;;;5072690;28;20236;-77
2022/10/14 04:55:36;;;;;;;14.60;12.43;;;13.80;99.90;;;;;;5071795;28;20205;-77
2022/10/14 04:58:05;;;;;;;14.73;12.35;;;13.70;99.90;;;;;;5071122;28;20213;-77
2022/10/14 05:00:39;;;;;;;15.60;12.63;;;13.60;99.90;;;;;;5071324;28;20198;-77
2022/10/14 05:03:25;;;;;;;14.85;12.40;;;13.60;99.90;;;;;;5065924;28;20221;-77
2022/10/14 05:05:52;;;;;;;17.75;13.35;;;13.60;99.90;;;;;;5072603;28;20201;-77
2022/10/14 05:08:22;;;;;;;17.02;12.90;;;13.60;99.90;;;;;;5071245;28;20198;-77
2022/10/14 05:10:55;;;;;;;13.55;12.05;;;13.60;99.90;;;;;;5067699;28;20189;-76
2022/10/14 05:13:37;;;;;;;13.18;11.70;;;13.70;99.90;;;;;;5066943;28;20221;-79
2022/10/14 05:16:28;;;;;;;13.48;10.82;;;13.70;99.90;;;;;;5056377;28;20194;-77
2022/10/14 05:18:56;;;;;;;15.85;12.27;;;13.70;99.90;;;;;;5081927;28;20210;-80
2022/10/14 05:21:24;;;;;;;13.57;11.43;;;13.70;99.90;;;;;;5067701;28;20197;-78
2022/10/14 05:24:41;;;;;;;13.63;11.75;;;13.80;99.90;;;;;;5061525;28;20233;-77
2022/10/14 05:27:09;;;;;;;16.08;12.15;;;13.70;99.90;;;;;;5075023;28;20201;-77
2022/10/14 05:29:37;;;;;;;16.55;11.20;;;13.70;99.90;;;;;;5082910;28;20201;-77
2022/10/14 05:32:05;;;;;;;13.90;10.95;;;13.70;99.90;;;;;;5066409;28;20202;-83
2022/10/14 05:34:45;;;;;;;13.52;11.07;;;13.70;99.90;;;;;;5065990;28;20217;-80
2022/10/14 05:37:27;;;;;;;12.15;10.43;;;13.70;99.90;;;;;;5069474;28;20197;-77
2022/10/14 05:39:57;;;;;;;13.10;10.98;;;13.70;99.90;;;;;;5067603;28;20208;-76
2022/10/14 05:42:26;;;;;;;11.50;9.80;;;13.70;99.90;;;;;;5070010;28;20659;-77
2022/10/14 05:44:57;;;;;;;10.20;9.18;;;13.70;99.90;;;;;;5069669;28;20213;-77
2022/10/14 05:47:29;;;;;;;12.77;10.95;;;13.70;99.90;;;;;;5069088;28;20198;-77
2022/10/14 05:50:06;;;;;;;12.90;10.20;;;13.70;99.90;;;;;;5068610;28;20212;-76
2022/10/14 05:52:34;;;;;;;11.43;10.15;;;13.70;99.90;;;;;;5070471;28;20201;-76
2022/10/14 05:55:23;;;;;;;10.80;9.73;;;13.70;99.90;;;;;;5068951;28;20228;-77
2022/10/14 05:57:55;;;;;;;11.32;9.82;;;13.60;99.90;;;;;;5068823;28;20193;-79
2022/10/14 06:00:26;;;;;;;13.63;10.10;;;13.70;99.90;;;;;;5069200;28;20201;-77
2022/10/14 06:03:05;;;;;;;9.52;8.52;;;13.70;99.90;;;;;;5068946;28;20193;-77
2022/10/14 06:05:36;;;;;;;11.20;9.63;;;13.60;99.90;;;;;;5068212;28;20193;-77
2022/10/14 06:08:05;;;;;;;11.00;9.90;;;13.70;99.90;;;;;;5069771;28;20193;-77
2022/10/14 06:10:36;;;;;;;10.20;8.85;;;13.70;99.90;;;;;;5081408;28;20557;-77
2022/10/14 06:13:04;;;;;;;11.23;10.02;;;13.70;99.90;;;;;;5072764;28;20563;-77
2022/10/14 06:15:35;;;;;;;9.90;8.90;;;13.70;99.90;;;;;;5070706;28;20208;-77
2022/10/14 06:18:02;;;;;;;10.60;9.45;;;13.70;99.90;;;;;;5088769;28;20193;-76
2022/10/14 06:20:30;;;;;;;9.63;8.50;;;13.70;99.90;;;;;;5072021;28;20200;-77
2022/10/14 06:22:59;;;;;;;10.27;9.18;;;13.60;99.90;;;;;;5072348;28;20212;-77
2022/10/14 06:25:26;;;;;;;9.80;8.80;;;13.70;99.90;;;;;;5072023;28;20197;-76
2022/10/14 06:27:55;;;;;;;9.38;8.10;;;13.70;99.90;;;;;;5070420;28;20189;-77
2022/10/14 06:30:23;;;;;;;9.45;8.38;;;13.70;99.90;;;;;;5074883;28;20624;-76
2022/10/14 06:32:53;;;;;;;9.60;8.60;;;13.60;99.90;;;;;;5071211;28;20208;-77
2022/10/14 06:35:20;;;;;;;9.07;8.10;;;13.60;99.90;;;;;;5074087;28;20194;-81
2022/10/14 06:37:48;;;;;;;9.00;7.85;;;13.60;99.90;;;;;;5069758;28;20201;-80
2022/10/14 06:40:16;;;;;;;10.02;9.02;;;13.60;99.90;;;;;;5090900;28;20216;-77
2022/10/14 06:42:43;;;;;;;9.50;8.55;;;13.60;99.90;;;;;;5073791;28;20205;-77
2022/10/14 06:45:12;;;;;;;10.48;8.65;;;13.70;99.90;;;;;;5072253;28;20594;-77
2022/10/14 06:47:40;;;;;;;11.90;8.57;;;13.70;99.90;;;;;;5069855;28;20201;-82
2022/10/14 06:50:08;;;;;;;9.32;8.30;;;13.70;99.90;;;;;;5085249;28;20198;-76
2022/10/14 06:52:35;;;;;;;10.25;8.00;;;13.70;99.90;;;;;;5071974;28;20670;-76
2022/10/14 06:55:17;;;;;;;8.90;7.60;;;13.70;99.90;;;;;;5077505;28;20722;-77
2022/10/14 06:57:44;;;;;;;8.05;7.25;;;13.70;99.90;;;;;;5083388;28;20191;-76
2022/10/14 07:00:14;;;;;;;7.82;6.75;;;13.70;99.90;;;;;;5069150;28;20213;-76
2022/10/14 07:02:42;;;;;;;8.18;7.22;;;13.80;99.90;;;;;;5069332;28;20202;-76
2022/10/14 07:05:10;;;;;;;7.97;7.07;;;13.70;99.90;;;;;;5084983;28;20229;-76
2022/10/14 07:07:38;;;;;;;8.98;7.30;;;13.80;99.90;;;;;;5072221;28;20206;-78
2022/10/14 07:10:08;;;;;;;8.45;7.40;;;13.80;99.90;;;;;;5073865;28;20194;-79
2022/10/14 07:12:35;;;;;;;7.53;6.57;;;13.80;99.90;;;;;;5069114;28;20686;-77
2022/10/14 07:15:03;;;;;;;7.53;6.82;;;13.80;99.90;;;;;;5070426;28;20213;-77
2022/10/14 07:17:32;;;;;;;6.85;6.25;;;13.80;99.90;;;;;;5084908;28;20559;-77
2022/10/14 07:20:00;;;;;;;6.72;6.13;;;13.80;99.90;;;;;;5072009;28;20225;-76
2022/10/14 07:22:35;;;;;;;7.72;7.00;;;13.90;99.90;;;;;;5091947;28;20198;-78
2022/10/14 07:25:03;;;;;;;9.60;6.75;;;13.90;99.90;;;;;;5070737;28;20240;-77
2022/10/14 07:27:31;;;;;;;8.75;6.75;;;13.90;99.90;;;;;;5087321;28;20208;-77
2022/10/14 07:30:00;;;;;;;7.40;6.53;;;14.00;99.90;;;;;;5072461;28;20194;-77
2022/10/14 07:32:28;;;;;;;7.85;7.05;;;14.00;99.90;;;;;;5075704;28;20198;-77
2022/10/14 07:34:57;;;;;;;7.85;6.95;;;14.00;99.90;;;;;;5074928;28;20217;-76
2022/10/14 07:37:25;;;;;;;8.30;7.50;;;14.00;99.90;;;;;;5072758;28;20215;-77
2022/10/14 07:39:52;;;;;;;7.07;6.47;;;14.10;99.90;;;;;;5088713;28;20214;-77
2022/10/14 07:42:19;;;;;;;7.53;6.75;;;14.10;99.90;;;;;;5072067;28;20224;-78
2022/10/14 07:44:47;;;;;;;6.85;6.25;;;14.10;99.90;;;;;;5073439;28;20221;-76
2022/10/14 07:47:14;;;;;;;7.25;6.57;;;14.10;99.90;;;;;;5071008;28;20205;-77
2022/10/14 07:49:42;;;;;;;7.15;6.45;;;14.10;99.90;;;;;;5073409;28;20670;-78
2022/10/14 07:52:11;;;;;;;7.35;6.65;;;14.10;99.90;;;;;;5074445;28;20205;-77
2022/10/14 07:54:38;;;;;;;6.97;6.25;;;14.10;99.90;;;;;;5089967;28;20221;-77
2022/10/14 07:57:05;;;;;;;6.65;5.90;;;14.10;99.90;;;;;;5066715;28;20217;-77
2022/10/14 07:59:33;;;;;;;6.95;6.22;;;14.10;99.90;;;;;;5081823;28;20221;-77
2022/10/14 08:02:00;;;;;;;6.20;5.60;;;14.10;99.90;;;;;;5070395;28;20694;-77
2022/10/14 08:04:28;;;;;;;6.68;6.00;;;14.20;99.90;;;;;;5072688;28;20217;-77
2022/10/14 08:06:55;;;;;;;6.15;5.55;;;14.20;99.90;;;;;;5072288;28;20198;-76
2022/10/14 08:09:24;;;;;;;6.88;5.63;;;14.20;99.90;;;;;;5060103;28;20572;-76
2022/10/14 08:11:51;;;;;;;7.88;6.10;;;14.20;99.90;;;;;;5071338;28;20205;-78
2022/10/14 08:14:19;;;;;;;6.50;5.82;;;14.30;99.90;;;;;;5072298;28;20221;-77
2022/10/14 08:16:46;;;;;;;8.07;5.65;;;14.40;99.90;;;;;;5077335;28;20208;-77
2022/10/14 08:19:49;;;;;;;5.72;5.22;;;14.40;99.90;;;;;;5067685;28;20648;-76
2022/10/14 08:22:17;;;;;;;6.25;5.65;;;14.40;99.90;;;;;;5067453;28;20181;-76
2022/10/14 08:24:46;;;;;;;5.55;5.05;;;14.40;99.90;;;;;;5075587;28;20205;-76
2022/10/14 08:27:28;;;;;;;5.70;5.20;;;14.40;99.90;;;;;;5079025;28;20208;-77
2022/10/14 08:29:56;;;;;;;5.60;5.10;;;14.40;99.90;;;;;;5073438;28;20194;-76
2022/10/14 08:32:23;;;;;;;5.50;5.00;;;14.50;99.90;;;;;;5095152;28;20573;-77
2022/10/14 08:34:51;;;;;;;5.15;4.65;;;14.50;99.90;;;;;;5086985;28;20229;-76
2022/10/14 08:37:24;;;;;;;4.53;4.13;;;14.50;99.90;;;;;;5075627;28;20201;-76
2022/10/14 08:39:53;;;;;;;4.35;3.97;;;14.50;99.90;;;;;;5070468;28;20216;-76
2022/10/14 08:42:43;;;;;;;5.38;4.43;;;14.60;99.90;;;;;;5072401;28;20194;-76
2022/10/14 08:45:18;;;;;;;4.95;3.90;;;14.60;99.90;;;;;;5086808;28;20230;-77
2022/10/14 08:48:10;;;;;;;3.35;3.05;;;14.60;99.90;;;;;;5071352;28;20201;-76
2022/10/14 08:50:44;;;;;;;3.90;3.60;;;14.50;99.90;;;;;;5065323;28;20205;-77
2022/10/14 08:53:22;;;;;;;3.47;3.17;;;14.50;99.90;;;;;;5073972;28;20218;-77
2022/10/14 08:55:55;;;;;;;3.83;2.97;;;14.60;99.90;;;;;;5062180;28;20797;-79
2022/10/14 08:58:27;;;;;;;3.75;3.00;;;14.60;99.90;;;;;;5069694;28;20204;-77
2022/10/14 09:00:55;;;;;;;3.35;3.03;;;14.70;99.90;;;;;;5081348;28;20221;-77
2022/10/14 09:03:31;;;;;;;4.55;3.50;;;14.70;99.90;;;;;;5068732;28;20225;-77
2022/10/14 09:06:39;;;;;;;2.70;2.50;;;14.70;99.90;;;;;;5069122;28;20209;-78
2022/10/14 09:09:12;;;;;;;3.08;2.70;;;14.60;99.90;;;;;;5068896;28;20209;-77
2022/10/14 09:11:43;;;;;;;2.35;2.15;;;14.70;99.90;;;;;;5064703;28;20183;-78
2022/10/14 09:14:17;;;;;;;2.35;2.00;;;14.70;99.90;;;;;;5069671;28;20233;-77
2022/10/14 09:16:47;;;;;;;3.88;2.63;;;14.70;99.90;;;;;;5080962;28;20209;-77
2022/10/14 09:19:22;;;;;;;2.88;2.40;;;14.80;99.90;;;;;;5067981;28;20210;-78
2022/10/14 09:21:53;;;;;;;2.28;2.08;;;14.80;99.90;;;;;;5081294;28;20216;-77
2022/10/14 09:24:23;;;;;;;1.95;1.75;;;14.80;99.90;;;;;;5064700;28;20218;-78
2022/10/14 09:26:54;;;;;;;2.33;1.83;;;14.90;99.90;;;;;;5080115;28;20198;-77
2022/10/14 09:29:26;;;;;;;2.30;1.98;;;14.90;99.90;;;;;;5067532;28;20194;-77
2022/10/14 09:32:02;;;;;;;3.50;2.25;;;14.90;99.90;;;;;;5062168;28;20194;-77
2022/10/14 09:34:34;;;;;;;2.60;2.08;;;15.00;99.90;;;;;;5065377;28;20222;-76
2022/10/14 09:37:20;;;;;;;1.88;1.77;;;15.00;99.90;;;;;;5066625;28;20208;-77
2022/10/14 09:39:50;;;;;;;2.90;2.20;;;15.00;99.90;;;;;;5068323;28;20189;-78
2022/10/14 09:42:22;;;;;;;2.03;1.70;;;15.00;99.90;;;;;;5064979;28;20193;-78
2022/10/14 09:45:07;;;;;;;3.80;2.22;;;15.00;99.90;;;;;;5080522;28;20233;-76
2022/10/14 09:47:41;;;;;;;1.92;1.73;;;15.10;99.90;;;;;;5064487;28;20201;-77
2022/10/14 09:50:10;;;;;;;1.83;1.73;;;15.00;99.90;;;;;;5075615;28;20213;-78
2022/10/14 09:52:38;;;;;;;2.28;1.98;;;15.00;99.90;;;;;;5067388;28;20574;-77
2022/10/14 09:55:18;;;;;;;1.80;1.63;;;15.00;99.90;;;;;;5066005;28;20978;-77
2022/10/14 09:58:02;;;;;;;1.85;1.60;;;15.10;99.90;;;;;;5065588;28;20206;-77
2022/10/14 10:00:32;;;;;;;2.25;1.65;;;15.10;99.90;;;;;;5069630;28;20205;-77
2022/10/14 10:03:00;;;;;;;2.10;1.90;;;15.20;99.90;;;;;;5068226;28;20209;-79
2022/10/14 10:05:29;;;;;;;2.25;1.52;;;15.30;99.90;;;;;;5066756;28;20216;-76
2022/10/14 10:08:04;;;;;;;2.03;1.25;;;15.30;99.90;;;;;;5076065;28;20201;-77
2022/10/14 10:10:33;;;;;;;1.42;1.33;;;15.30;99.90;;;;;;5065042;28;20206;-78
2022/10/14 10:13:03;;;;;;;4.57;1.30;;;15.40;99.90;;;;;;5068748;28;20205;-79
2022/10/14 10:15:30;;;;;;;3.92;1.77;;;15.40;99.90;;;;;;5066925;28;20198;-81
2022/10/14 10:17:57;;;;;;;1.42;1.30;;;15.50;99.90;;;;;;5065580;28;20231;-79
2022/10/14 10:20:32;;;;;;;3.42;1.63;;;15.50;99.90;;;;;;5060407;28;20216;-77
2022/10/14 10:23:23;;;;;;;1.50;1.40;;;15.60;99.90;;;;;;5067144;28;20197;-77
2022/10/14 10:25:51;;;;;;;1.77;1.60;;;15.60;99.90;;;;;;5066950;28;20197;-77
2022/10/14 10:28:30;;;;;;;1.60;1.50;;;15.60;99.90;;;;;;5066276;28;20205;-78
2022/10/14 10:31:11;;;;;;;1.52;1.42;;;15.60;99.90;;;;;;5082012;28;20193;-76
2022/10/14 10:33:48;;;;;;;1.55;1.45;;;15.60;99.90;;;;;;5063808;28;20221;-77
2022/10/14 10:36:20;;;;;;;2.03;1.70;;;15.60;99.90;;;;;;5062137;28;20212;-78
2022/10/14 10:38:58;;;;;;;3.75;1.67;;;15.60;99.90;;;;;;5064491;28;20205;-77
2022/10/14 10:41:44;;;;;;;1.67;1.45;;;15.60;99.90;;;;;;5082556;28;20225;-79
2022/10/14 10:44:46;;;;;;;1.88;1.60;;;15.60;99.90;;;;;;5061872;28;20225;-77
2022/10/14 10:47:30;;;;;;;2.50;1.40;;;15.60;99.90;;;;;;5058796;28;20209;-77
2022/10/14 10:50:30;;;;;;;2.28;1.67;;;15.60;99.90;;;;;;5069611;28;20804;-80
2022/10/14 10:53:17;;;;;;;1.48;1.38;;;15.60;99.90;;;;;;4989545;28;20207;-77
2022/10/14 10:55:57;;;;;;;2.28;1.70;;;15.60;99.90;;;;;;5059371;28;20202;-77
2022/10/14 10:58:40;;;;;;;2.20;2.00;;;15.70;99.90;;;;;;5067337;28;20193;-80
2022/10/14 11:01:24;;;;;;;1.83;1.73;;;15.70;99.90;;;;;;5064532;28;20220;-77
2022/10/14 11:04:07;;;;;;;2.35;1.92;;;15.70;99.90;;;;;;5081193;28;20221;-79
2022/10/14 11:12:26;;;;;;;2.22;2.03;;;15.80;99.90;;;;;;5067971;28;20189;-77
2022/10/14 11:15:13;;;;;;;2.20;2.00;;;15.80;99.90;;;;;;5070420;28;20221;-77
2022/10/14 11:17:48;;;;;;;1.80;1.70;;;15.80;99.90;;;;;;5065966;28;20193;-77
2022/10/14 11:20:28;;;;;;;1.95;1.85;;;15.80;99.90;;;;;;5065462;28;20188;-81
2022/10/14 11:23:14;;;;;;;2.20;2.00;;;15.90;99.90;;;;;;5069335;28;20189;-77
2022/10/14 11:25:48;;;;;;;1.77;1.58;;;15.80;99.90;;;;;;5073620;28;20190;-76
2022/10/14 11:28:24;;;;;;;2.22;1.95;;;15.80;99.90;;;;;;5077251;28;20198;-77
2022/10/14 11:30:59;;;;;;;2.30;2.10;;;15.80;99.90;;;;;;5094252;28;20203;-82
2022/10/14 11:33:40;;;;;;;3.05;2.50;;;15.90;99.90;;;;;;5069730;28;20217;-77
2022/10/14 11:36:25;;;;;;;2.35;2.15;;;16.00;99.90;;;;;;5071285;28;20208;-76
2022/10/14 11:39:24;;;;;;;2.47;2.28;;;16.00;99.90;;;;;;5085931;28;20209;-77
2022/10/14 11:42:03;;;;;;;3.17;2.65;;;16.00;99.90;;;;;;5070660;28;20206;-78
2022/10/14 11:44:43;;;;;;;2.50;2.30;;;16.00;99.90;;;;;;5071722;28;20851;-76
2022/10/14 11:47:15;;;;;;;3.40;2.72;;;16.20;99.90;;;;;;5069042;28;20651;-76
2022/10/14 11:49:52;;;;;;;4.40;2.75;;;16.30;99.90;;;;;;5071389;28;20205;-77
2022/10/14 11:52:24;;;;;;;5.38;2.83;;;16.30;99.90;;;;;;5070889;28;20224;-88
2022/10/14 11:54:57;;;;;;;4.32;3.00;;;16.30;99.90;;;;;;5088153;28;20234;-76
2022/10/14 11:57:42;;;;;;;3.03;2.60;;;16.20;99.90;;;;;;5071258;28;20216;-78
2022/10/14 12:00:32;;;;;;;4.25;2.70;;;16.20;99.90;;;;;;5064872;28;20225;-77
2022/10/14 12:03:08;;;;;;;3.78;3.13;;;16.20;99.90;;;;;;5070091;28;20488;-77
2022/10/14 12:05:40;;;;;;;4.05;3.42;;;16.20;99.90;;;;;;5085301;28;20217;-76
2022/10/14 12:08:18;;;;;;;6.78;3.95;;;16.20;99.90;;;;;;5085055;28;20207;-77
2022/10/14 12:10:49;;;;;;;5.57;4.00;;;16.20;99.90;;;;;;5071320;28;20212;-77
2022/10/14 12:13:20;;;;;;;4.80;4.13;;;16.10;99.90;;;;;;5065557;28;20228;-80
2022/10/14 12:15:50;;;;;;;4.65;3.63;;;16.10;99.90;;;;;;5070529;28;20194;-77
2022/10/14 12:18:19;;;;;;;5.07;4.07;;;16.10;99.90;;;;;;5063877;28;20194;-77
2022/10/14 12:20:55;;;;;;;4.90;4.40;;;16.10;99.90;;;;;;5084467;28;20193;-80
2022/10/14 12:23:31;;;;;;;6.15;4.90;;;16.10;99.90;;;;;;5051782;28;20579;-78
2022/10/14 12:26:05;;;;;;;5.28;3.88;;;16.10;99.90;;;;;;5069334;28;20567;-77
2022/10/14 12:28:37;;;;;;;4.90;4.40;;;16.10;99.90;;;;;;5066617;28;20197;-80
2022/10/14 12:31:22;;;;;;;5.45;4.72;;;16.10;99.90;;;;;;5070819;28;20224;-77
2022/10/14 12:34:17;;;;;;;5.70;5.00;;;16.00;99.90;;;;;;5068563;28;20221;-78
2022/10/14 12:36:49;;;;;;;6.28;4.78;;;15.90;99.90;;;;;;5067755;28;20664;-80
2022/10/14 12:39:34;;;;;;;6.18;5.10;;;15.80;99.90;;;;;;5070027;28;20208;-78
2022/10/14 12:42:09;;;;;;;8.20;5.88;;;15.80;99.90;;;;;;5069550;28;20206;-79
2022/10/14 12:44:46;;;;;;;8.43;5.53;;;15.80;99.90;;;;;;5067216;28;20220;-78
2022/10/14 12:47:27;;;;;;;8.60;5.50;;;15.80;99.90;;;;;;5069960;28;20201;-78
2022/10/14 12:49:57;;;;;;;5.38;4.88;;;15.80;99.90;;;;;;5068196;28;20198;-78
2022/10/14 12:52:29;;;;;;;7.68;5.68;;;15.80;99.90;;;;;;5071451;28;20186;-78
2022/10/14 12:54:58;;;;;;;6.85;5.75;;;15.70;99.90;;;;;;5068440;28;20229;-79
2022/10/14 12:57:29;;;;;;;7.35;5.50;;;15.70;99.90;;;;;;5072149;28;20667;-81
2022/10/14 13:00:01;;;;;;;6.65;5.30;;;15.60;99.90;;;;;;5079525;22;20221;-80
2022/10/14 13:02:32;;;;;;;8.27;5.72;;;15.60;99.90;;;;;;5052016;28;20221;-78
2022/10/14 13:05:02;;;;;;;8.35;6.07;;;15.50;99.90;;;;;;5049453;28;20570;-79
2022/10/14 13:07:41;;;;;;;8.23;6.22;;;15.50;99.90;;;;;;5041306;28;20215;-79
2022/10/14 13:10:47;;;;;;;8.60;6.65;;;15.50;99.90;;;;;;5003990;28;20238;-80
2022/10/14 13:13:59;;;;;;;7.28;6.05;;;15.50;99.90;;;;;;5003195;28;20196;-80
2022/10/14 13:16:54;;;;;;;11.30;7.22;;;15.50;99.90;;;;;;4971929;28;20205;-80
2022/10/14 13:19:45;;;;;;;8.02;6.20;;;15.50;99.90;;;;;;5016076;28;20234;-80